createdAt,value
2022-09-04T00:00:00.180Z,15.82
2022-09-04T00:02:49.049Z,15.57
2022-09-04T00:05:26.123Z,15.82
2022-09-04T00:08:21.169Z,16.33
2022-09-04T00:11:19.109Z,16.45
2022-09-04T00:13:53.350Z,16.11
2022-09-04T00:16:37.364Z,16.01
2022-09-04T00:19:26.912Z,16.11
2022-09-04T00:22:00.929Z,15.43
2022-09-04T00:25:00.019Z,15.75
2022-09-04T00:27:32.921Z,15.91
2022-09-04T00:30:06.504Z,15.48
2022-09-04T00:32:42.190Z,15.82
2022-09-04T00:35:16.169Z,16.33
2022-09-04T00:37:50.629Z,16.90
2022-09-04T00:40:35.913Z,16.99
2022-09-04T00:43:25.127Z,16.91
2022-09-04T00:46:30.355Z,16.77
2022-09-04T00:49:33.309Z,16.92
2022-09-04T00:52:00.990Z,16.84
2022-09-04T00:54:41.067Z,17.08
2022-09-04T00:57:42.763Z,16.85
2022-09-04T01:00:16.641Z,16.91
2022-09-04T01:03:21.669Z,17.04
2022-09-04T01:05:56.659Z,16.23
2022-09-04T01:08:56.324Z,17.01
2022-09-04T01:11:41.647Z,17.14
2022-09-04T01:14:25.560Z,17.07
2022-09-04T01:17:00.199Z,17.14
2022-09-04T01:19:43.210Z,16.99
2022-09-04T01:22:34.029Z,16.49
2022-09-04T01:25:08.699Z,16.96
2022-09-04T01:27:50.169Z,17.18
2022-09-04T01:30:19.648Z,16.53
2022-09-04T01:33:08.390Z,16.31
2022-09-04T01:35:57.509Z,15.87
2022-09-04T01:38:28.590Z,17.13
2022-09-04T01:41:02.310Z,16.31
2022-09-04T01:43:31.820Z,16.26
2022-09-04T01:46:11.863Z,16.76
2022-09-04T01:48:52.320Z,16.68
2022-09-04T01:51:30.221Z,17.27
2022-09-04T01:54:10.749Z,17.37
2022-09-04T01:56:40.739Z,16.85
2022-09-04T01:59:20.140Z,16.41
2022-09-04T02:01:54.595Z,16.44
2022-09-04T02:04:28.669Z,16.23
2022-09-04T02:07:18.734Z,16.70
2022-09-04T02:09:54.540Z,16.52
2022-09-04T02:12:42.612Z,16.35
2022-09-04T02:15:16.809Z,16.71
2022-09-04T02:18:03.350Z,16.64
2022-09-04T02:20:31.923Z,16.93
2022-09-04T02:23:10.361Z,16.79
2022-09-04T02:26:04.414Z,17.13
2022-09-04T02:29:08.851Z,17.41
2022-09-04T02:31:55.260Z,17.14
2022-09-04T02:34:46.914Z,16.83
2022-09-04T02:37:34.009Z,16.92
2022-09-04T02:40:04.688Z,16.90
2022-09-04T02:42:43.596Z,16.92
2022-09-04T02:45:30.205Z,16.84
2022-09-04T02:48:17.190Z,17.05
2022-09-04T02:51:14.055Z,17.02
2022-09-04T02:53:44.483Z,17.23
2022-09-04T02:56:42.820Z,17.23
2022-09-04T02:59:32.611Z,16.88
2022-09-04T03:02:03.020Z,17.25
2022-09-04T03:04:50.230Z,17.48
2022-09-04T03:07:24.966Z,17.10
2022-09-04T03:10:18.010Z,17.13
2022-09-04T03:13:10.939Z,17.07
2022-09-04T03:15:54.873Z,17.23
2022-09-04T03:18:52.361Z,16.61
2022-09-04T03:21:28.981Z,17.39
2022-09-04T03:24:01.191Z,17.46
2022-09-04T03:26:51.854Z,17.48
2022-09-04T03:29:42.840Z,17.30
2022-09-04T03:32:39.340Z,16.90
2022-09-04T03:35:25.988Z,17.10
2022-09-04T03:38:13.090Z,17.34
2022-09-04T03:40:43.240Z,16.97
2022-09-04T03:43:49.660Z,17.05
2022-09-04T03:46:20.169Z,17.18
2022-09-04T03:49:15.382Z,17.38
2022-09-04T03:52:07.108Z,17.13
2022-09-04T03:54:50.850Z,17.02
2022-09-04T03:57:41.102Z,17.04
2022-09-04T04:00:18.537Z,16.97
2022-09-04T04:03:07.740Z,16.90
2022-09-04T04:05:53.290Z,17.11
2022-09-04T04:08:39.970Z,17.03
2022-09-04T04:11:21.521Z,17.07
2022-09-04T04:14:00.720Z,17.00
2022-09-04T04:16:32.438Z,16.83
2022-09-04T04:19:45.169Z,16.92
2022-09-04T04:22:31.179Z,16.72
2022-09-04T04:25:05.560Z,16.92
2022-09-04T04:28:28.750Z,16.93
2022-09-04T04:31:07.601Z,17.38
2022-09-04T04:34:30.946Z,16.87
2022-09-04T04:37:05.231Z,16.83
2022-09-04T04:39:38.261Z,17.51
2022-09-04T04:42:26.526Z,17.02
2022-09-04T04:45:31.267Z,17.13
2022-09-04T04:48:16.396Z,16.89
2022-09-04T04:51:05.819Z,17.05
2022-09-04T04:53:57.481Z,17.34
2022-09-04T04:56:53.681Z,17.32
2022-09-04T04:59:34.780Z,17.30
2022-09-04T05:02:12.260Z,17.47
2022-09-04T05:04:49.552Z,17.80
2022-09-04T05:07:38.419Z,17.56
2022-09-04T05:10:19.179Z,18.00
2022-09-04T05:13:14.729Z,17.42
2022-09-04T05:16:10.076Z,17.49
2022-09-04T05:18:50.481Z,17.86
2022-09-04T05:21:43.308Z,17.96
2022-09-04T05:24:26.777Z,18.14
2022-09-04T05:27:02.520Z,18.29
2022-09-04T05:29:35.480Z,17.94
2022-09-04T05:32:16.775Z,17.99
2022-09-04T05:35:22.280Z,17.92
2022-09-04T05:38:01.966Z,17.77
2022-09-04T05:53:05.284Z,18.90
2022-09-04T05:55:47.187Z,18.90
2022-09-04T05:58:33.350Z,17.90
2022-09-04T06:01:49.880Z,17.68
2022-09-04T06:04:26.205Z,18.10
2022-09-04T06:06:59.557Z,17.92
2022-09-04T06:09:34.620Z,18.02
2022-09-04T06:12:28.285Z,18.09
2022-09-04T06:15:31.498Z,18.34
2022-09-04T06:18:17.672Z,18.32
2022-09-04T06:21:01.279Z,17.87
2022-09-04T06:23:44.317Z,18.00
2022-09-04T06:26:25.213Z,18.48
2022-09-04T06:29:05.940Z,18.13
2022-09-04T06:31:51.748Z,18.57
2022-09-04T06:34:28.417Z,18.74
2022-09-04T06:37:12.477Z,18.13
2022-09-04T06:39:46.327Z,18.56
2022-09-04T06:42:23.377Z,18.14
2022-09-04T06:45:12.461Z,18.17
2022-09-04T06:48:00.099Z,18.49
2022-09-04T06:50:31.183Z,18.33
2022-09-04T06:53:21.454Z,18.48
2022-09-04T06:56:08.607Z,18.49
2022-09-04T06:59:01.315Z,18.36
2022-09-04T07:01:41.717Z,18.96
2022-09-04T07:04:09.908Z,19.09
2022-09-04T07:06:58.897Z,19.02
2022-09-04T07:09:33.569Z,18.89
2022-09-04T07:12:01.502Z,19.05
2022-09-04T07:14:38.809Z,19.63
2022-09-04T07:17:28.556Z,19.19
2022-09-04T07:20:15.662Z,19.27
2022-09-04T07:22:46.777Z,19.34
2022-09-04T07:25:30.185Z,19.23
2022-09-04T07:28:01.694Z,19.98
2022-09-04T07:30:34.828Z,20.22
2022-09-04T07:33:27.506Z,19.72
2022-09-04T07:36:19.498Z,20.03
2022-09-04T07:38:54.676Z,20.09
2022-09-04T07:41:42.788Z,20.12
2022-09-04T07:44:42.123Z,19.65
2022-09-04T07:47:18.339Z,19.82
2022-09-04T07:50:40.376Z,19.41
2022-09-04T07:53:54.776Z,20.05
2022-09-04T07:56:36.786Z,19.86
2022-09-04T07:59:29.281Z,19.97
2022-09-04T08:07:00.569Z,20.08
2022-09-04T08:10:39.001Z,19.77
2022-09-04T08:13:42.113Z,20.49
2022-09-04T08:16:31.409Z,21.21
2022-09-04T08:19:15.852Z,20.21
2022-09-04T08:21:46.320Z,21.01
2022-09-04T08:24:21.886Z,21.27
2022-09-04T08:27:19.482Z,21.23
2022-09-04T08:30:08.018Z,21.00
2022-09-04T08:33:03.859Z,20.92
2022-09-04T08:35:41.242Z,20.79
2022-09-04T08:38:32.068Z,20.72
2022-09-04T08:41:27.574Z,20.71
2022-09-04T08:43:58.984Z,20.52
2022-09-04T08:46:49.452Z,21.05
2022-09-04T08:49:34.310Z,20.78
2022-09-04T08:52:13.336Z,20.76
2022-09-04T08:54:58.575Z,21.19
2022-09-04T08:57:59.098Z,21.00
2022-09-04T09:00:36.295Z,20.72
2022-09-04T09:03:44.096Z,20.90
2022-09-04T09:06:21.376Z,20.64
2022-09-04T09:09:28.897Z,21.51
2022-09-04T09:12:40.218Z,21.49
2022-09-04T09:15:48.468Z,21.11
2022-09-04T09:18:37.408Z,21.38
2022-09-04T09:21:12.096Z,21.14
2022-09-04T09:23:48.275Z,21.38
2022-09-04T09:26:19.864Z,21.38
2022-09-04T09:29:10.225Z,21.71
2022-09-04T09:32:04.107Z,21.70
2022-09-04T09:34:47.219Z,21.37
2022-09-04T09:37:30.248Z,21.62
2022-09-04T09:40:22.956Z,22.02
2022-09-04T09:43:13.047Z,21.71
2022-09-04T09:45:44.805Z,21.18
2022-09-04T09:48:50.669Z,20.81
2022-09-04T09:51:46.267Z,21.16
2022-09-04T09:54:40.754Z,21.83
2022-09-04T09:57:39.248Z,22.04
2022-09-04T10:00:17.413Z,21.66
2022-09-04T10:03:20.246Z,21.34
2022-09-04T10:06:10.030Z,21.41
2022-09-04T10:09:08.580Z,20.84
2022-09-04T10:12:12.826Z,20.62
2022-09-04T10:14:47.140Z,20.64
2022-09-04T10:17:25.917Z,20.95
2022-09-04T10:20:16.187Z,20.96
2022-09-04T10:23:20.061Z,21.40
2022-09-04T10:25:57.497Z,20.91
2022-09-04T10:28:47.616Z,20.78
2022-09-04T10:31:34.307Z,20.75
2022-09-04T10:34:04.935Z,20.99
2022-09-04T10:37:07.883Z,21.32
2022-09-04T10:40:04.398Z,19.91
2022-09-04T10:42:52.170Z,19.82
2022-09-04T10:45:39.229Z,20.74
2022-09-04T10:48:28.475Z,20.52
2022-09-04T10:51:23.048Z,19.80
2022-09-04T10:54:30.257Z,19.55
2022-09-04T10:56:57.917Z,21.34
2022-09-04T10:59:47.857Z,20.90
2022-09-04T11:02:43.200Z,20.55
2022-09-04T11:05:36.698Z,20.50
2022-09-04T11:08:19.128Z,20.42
2022-09-04T11:10:47.843Z,20.83
2022-09-04T11:13:40.746Z,21.42
2022-09-04T11:16:57.568Z,21.24
2022-09-04T11:19:43.996Z,21.48
2022-09-04T11:22:21.102Z,21.96
2022-09-04T11:25:14.223Z,21.85
2022-09-04T11:28:20.696Z,22.39
2022-09-04T11:31:21.226Z,21.87
2022-09-04T11:34:01.834Z,21.55
2022-09-04T11:37:10.963Z,22.10
2022-09-04T11:39:48.179Z,22.46
2022-09-04T11:42:21.962Z,22.02
2022-09-04T11:45:05.954Z,22.03
2022-09-04T11:47:57.003Z,21.50
2022-09-04T11:50:58.896Z,21.92
2022-09-04T11:53:43.171Z,22.74
2022-09-04T11:56:33.365Z,22.89
2022-09-04T11:59:24.970Z,22.89
2022-09-04T12:02:27.134Z,23.45
2022-09-04T12:05:39.611Z,23.36
2022-09-04T12:08:23.088Z,24.13
2022-09-04T12:11:00.114Z,23.63
2022-09-04T12:14:15.650Z,23.39
2022-09-04T12:16:52.910Z,23.14
2022-09-04T12:19:48.447Z,22.93
2022-09-04T12:22:36.531Z,23.00
2022-09-04T12:25:33.616Z,23.73
2022-09-04T12:28:39.350Z,23.93
2022-09-04T12:31:23.736Z,23.24
2022-09-04T12:34:10.177Z,23.41
2022-09-04T12:36:58.514Z,23.66
2022-09-04T12:39:43.215Z,23.90
2022-09-04T12:42:16.843Z,23.47
2022-09-04T12:45:05.879Z,23.85
2022-09-04T12:47:42.220Z,25.19
2022-09-04T12:50:17.694Z,25.45
2022-09-04T12:53:09.925Z,25.10
2022-09-04T12:56:08.998Z,24.51
2022-09-04T12:59:02.309Z,25.15
2022-09-04T13:02:00.650Z,24.86
2022-09-04T13:04:33.664Z,25.30
2022-09-04T13:07:28.475Z,25.91
2022-09-04T13:10:16.128Z,25.16
2022-09-04T13:13:09.247Z,25.57
2022-09-04T13:16:04.488Z,24.79
2022-09-04T13:19:13.721Z,24.41
2022-09-04T13:22:00.983Z,25.58
2022-09-04T13:24:44.392Z,24.67
2022-09-04T13:27:28.957Z,24.95
2022-09-04T13:30:06.006Z,24.72
2022-09-04T13:32:43.783Z,25.07
2022-09-04T13:35:25.816Z,25.19
2022-09-04T13:38:02.109Z,25.65
2022-09-04T13:40:33.190Z,26.05
2022-09-04T13:43:43.335Z,25.24
2022-09-04T13:46:17.227Z,26.89
2022-09-04T13:48:54.304Z,27.09
2022-09-04T13:51:30.252Z,26.69
2022-09-04T13:54:31.207Z,26.36
2022-09-04T13:57:08.397Z,26.41
2022-09-04T13:59:39.112Z,26.61
2022-09-04T14:02:12.666Z,27.33
2022-09-04T14:04:45.888Z,26.80
2022-09-04T14:07:19.128Z,25.72
2022-09-04T14:09:49.568Z,25.52
2022-09-04T14:12:33.842Z,25.60
2022-09-04T14:15:19.597Z,25.42
2022-09-04T14:18:08.450Z,25.38
2022-09-04T14:21:10.491Z,25.33
2022-09-04T14:24:34.223Z,25.66
2022-09-04T14:27:23.092Z,25.38
2022-09-04T14:30:04.316Z,25.14
2022-09-04T14:33:07.429Z,25.22
2022-09-04T14:35:47.575Z,26.37
2022-09-04T14:38:39.576Z,25.36
2022-09-04T14:41:19.373Z,26.12
2022-09-04T14:44:19.087Z,26.00
2022-09-04T14:46:56.878Z,26.17
2022-09-04T14:49:32.123Z,25.42
2022-09-04T14:52:12.311Z,25.49
2022-09-04T14:54:46.781Z,25.66
2022-09-04T14:57:18.221Z,25.85
2022-09-04T14:59:59.599Z,25.45
2022-09-04T15:02:41.349Z,25.39
2022-09-04T15:05:33.274Z,25.43
2022-09-04T15:08:10.596Z,25.16
2022-09-04T15:10:55.678Z,24.79
2022-09-04T15:13:29.966Z,25.36
2022-09-04T15:16:34.745Z,25.03
2022-09-04T15:19:30.357Z,25.26
2022-09-04T15:22:25.872Z,24.94
2022-09-04T15:26:05.011Z,25.44
2022-09-04T15:28:46.026Z,25.64
2022-09-04T15:31:30.936Z,25.42
2022-09-04T15:34:03.300Z,25.47
2022-09-04T15:36:32.285Z,25.49
2022-09-04T15:39:01.840Z,24.92
2022-09-04T15:41:48.699Z,24.81
2022-09-04T15:44:22.756Z,23.73
2022-09-04T15:47:17.384Z,23.59
2022-09-04T15:49:58.792Z,23.55
2022-09-04T15:52:40.706Z,24.02
2022-09-04T15:55:32.821Z,24.10
2022-09-04T15:58:20.014Z,24.55
2022-09-04T16:01:08.393Z,24.02
2022-09-04T16:03:52.801Z,23.83
2022-09-04T16:06:32.452Z,24.30
2022-09-04T16:09:18.945Z,24.38
2022-09-04T16:11:56.188Z,24.66
2022-09-04T16:14:27.487Z,24.69
2022-09-04T16:17:02.075Z,24.63
2022-09-04T16:19:55.666Z,24.53
2022-09-04T16:22:35.287Z,24.91
2022-09-04T16:25:10.392Z,24.11
2022-09-04T16:28:09.923Z,23.61
2022-09-04T16:30:47.769Z,24.57
2022-09-04T16:33:28.558Z,24.12
2022-09-04T16:36:09.854Z,24.27
2022-09-04T16:38:55.655Z,23.90
2022-09-04T16:41:40.556Z,24.00
2022-09-04T16:44:25.912Z,23.48
2022-09-04T16:47:11.021Z,23.67
2022-09-04T16:50:06.063Z,23.82
2022-09-04T16:52:58.884Z,23.23
2022-09-04T16:55:57.929Z,23.20
2022-09-04T16:58:40.173Z,23.39
2022-09-04T17:01:32.469Z,22.45
2022-09-04T17:04:14.360Z,22.82
2022-09-04T17:07:11.207Z,22.76
2022-09-04T17:09:48.656Z,21.75
2022-09-04T17:12:29.143Z,20.93
2022-09-04T17:15:21.880Z,20.73
2022-09-04T17:17:51.355Z,21.28
2022-09-04T17:22:33.241Z,21.47
2022-09-04T17:29:02.864Z,21.57
2022-09-04T17:29:15.825Z,21.68
2022-09-04T17:29:36.149Z,21.28
2022-09-04T17:35:16.983Z,21.07
2022-09-04T17:40:39.132Z,20.88
2022-09-04T17:40:49.541Z,20.91
2022-09-04T17:42:08.487Z,20.78
2022-09-04T17:44:40.772Z,19.98
2022-09-04T17:47:20.854Z,19.64
2022-09-04T17:49:51.293Z,19.86
2022-09-04T17:52:34.236Z,19.77
2022-09-04T17:55:08.184Z,19.61
2022-09-04T17:57:46.661Z,19.55
2022-09-04T18:00:25.134Z,19.08
2022-09-04T18:02:59.203Z,19.35
2022-09-04T18:05:51.509Z,19.28
2022-09-04T18:08:34.517Z,19.38
2022-09-04T18:11:02.794Z,19.10
2022-09-04T18:13:39.618Z,19.05
2022-09-04T18:16:47.820Z,18.90
2022-09-04T18:19:42.534Z,18.83
2022-09-04T18:22:33.475Z,19.09
2022-09-04T18:25:17.026Z,18.94
2022-09-04T18:28:06.328Z,18.81
2022-09-04T18:37:07.301Z,18.82
2022-09-04T18:37:24.931Z,19.02
2022-09-04T18:37:44.141Z,18.86
2022-09-04T18:40:06.502Z,19.03
2022-09-04T18:50:15.784Z,19.04
2022-09-04T18:50:37.436Z,19.02
2022-09-04T18:50:53.392Z,19.07
2022-09-04T18:51:59.158Z,18.70
2022-09-04T18:54:40.660Z,18.77
2022-09-04T18:57:33.301Z,18.96
2022-09-04T19:00:09.470Z,19.26
2022-09-04T19:02:53.996Z,19.26
2022-09-04T19:05:44.234Z,19.41
2022-09-04T19:08:32.191Z,19.26
2022-09-04T19:11:20.514Z,19.42
2022-09-04T19:13:49.564Z,19.34
2022-09-04T19:16:24.650Z,19.50
2022-09-04T19:19:31.570Z,19.19
2022-09-04T19:22:44.065Z,19.36
2022-09-04T19:25:20.864Z,19.64
2022-09-04T19:27:59.892Z,19.44
2022-09-04T19:30:37.208Z,19.45
2022-09-04T19:33:10.035Z,19.47
2022-09-04T19:35:51.272Z,19.56
2022-09-04T19:44:16.670Z,19.05
2022-09-04T19:45:55.212Z,19.38
2022-09-04T19:46:26.069Z,19.20
2022-09-04T19:47:28.420Z,19.26
2022-09-04T19:53:36.039Z,19.12
2022-09-04T19:53:37.331Z,18.57
2022-09-04T19:56:11.615Z,18.68
2022-09-04T19:58:44.235Z,19.33
2022-09-04T20:01:17.649Z,19.25
2022-09-04T20:03:49.333Z,19.42
2022-09-04T20:06:31.084Z,19.09
2022-09-04T20:09:16.995Z,19.38
2022-09-04T20:11:57.760Z,19.21
2022-09-04T20:14:35.213Z,19.35
2022-09-04T20:17:15.242Z,18.75
2022-09-04T20:19:57.416Z,19.43
2022-09-04T20:22:30.360Z,19.40
2022-09-04T20:25:21.526Z,19.45
2022-09-04T20:28:12.670Z,18.89
2022-09-04T20:30:48.034Z,19.31
2022-09-04T20:33:22.788Z,19.01
2022-09-04T20:35:55.791Z,19.46
2022-09-04T20:38:30.700Z,19.38
2022-09-04T20:41:08.565Z,19.30
2022-09-04T20:43:59.971Z,19.61
2022-09-04T20:49:52.405Z,19.54
2022-09-04T20:52:50.656Z,19.72
2022-09-04T20:53:07.553Z,19.48
2022-09-04T20:55:46.163Z,19.45
2022-09-04T21:02:56.504Z,19.27
2022-09-04T21:03:21.750Z,19.19
2022-09-04T21:04:23.834Z,19.21
2022-09-04T21:07:23.271Z,18.76
2022-09-04T21:10:05.895Z,18.13
2022-09-04T21:13:14.380Z,18.56
2022-09-04T21:15:52.267Z,19.03
2022-09-04T21:18:36.775Z,18.54
2022-09-04T21:21:37.226Z,18.14
2022-09-04T21:24:12.707Z,18.48
2022-09-04T21:27:02.245Z,18.86
2022-09-04T21:29:42.175Z,18.54
2022-09-04T21:32:42.594Z,18.49
2022-09-04T21:35:14.355Z,18.48
2022-09-04T21:37:57.284Z,18.37
2022-09-04T21:40:51.268Z,18.47
2022-09-04T21:43:39.095Z,18.21
2022-09-04T21:46:11.664Z,17.20
2022-09-04T21:49:28.883Z,17.20
2022-09-04T21:52:33.305Z,17.20
2022-09-04T21:56:49.396Z,17.38
2022-09-04T22:02:30.336Z,17.24
2022-09-04T22:02:45.028Z,16.96
2022-09-04T22:04:49.843Z,16.70
2022-09-04T22:12:10.408Z,17.45
2022-09-04T22:13:34.541Z,17.46
2022-09-04T22:13:51.386Z,16.83
2022-09-04T22:16:57.190Z,16.84
2022-09-04T22:19:46.125Z,17.39
2022-09-04T22:22:33.636Z,17.28
2022-09-04T22:25:16.625Z,17.14
2022-09-04T22:28:07.992Z,17.05
2022-09-04T22:30:50.315Z,16.54
2022-09-04T22:33:48.472Z,16.70
2022-09-04T22:36:28.434Z,16.49
2022-09-04T22:39:15.054Z,16.49
2022-09-04T22:42:17.758Z,16.76
2022-09-04T22:44:59.351Z,16.96
2022-09-04T22:48:03.983Z,16.22
2022-09-04T22:50:49.427Z,16.66
2022-09-04T22:53:43.016Z,16.21
2022-09-04T22:56:23.950Z,16.19
2022-09-04T22:59:27.062Z,16.43
2022-09-04T23:02:18.661Z,16.28
2022-09-04T23:05:12.377Z,15.81
2022-09-04T23:13:43.799Z,16.26
2022-09-04T23:13:59.558Z,16.21
2022-09-04T23:14:18.132Z,16.09
2022-09-04T23:17:18.783Z,16.52
2022-09-04T23:26:37.993Z,16.40
2022-09-04T23:26:44.826Z,16.51
2022-09-04T23:26:48.449Z,15.98
2022-09-04T23:29:05.692Z,16.32
2022-09-04T23:31:48.139Z,16.30
2022-09-04T23:34:50.714Z,16.44
2022-09-04T23:38:07.243Z,15.50
2022-09-04T23:40:48.483Z,15.99
2022-09-04T23:43:33.943Z,15.79
2022-09-04T23:46:24.177Z,15.95
2022-09-04T23:49:30.924Z,15.78
2022-09-04T23:52:27.209Z,15.85
2022-09-04T23:55:36.572Z,16.19
2022-09-04T23:58:59.019Z,15.13
